This is the latest recevied weather packets stored in our database for station/object N2IC. If no packets are shown the sender has not sent any weather packets the latest 10 day(s).
| Time | Temp. | Humidity | Pressure | Rain* | Wind** | Luminosity | Snow |
|---|---|---|---|---|---|---|---|
| 1777921802 | 20° C | 24% | - | 0 mm | - | - | - |
| 1777920002 | 18.33° C | 26% | - | 0 mm | - | - | - |
| 1777918802 | 18.33° C | 28% | - | 0 mm | - | - | - |
| 1777911002 | 16.11° C | 39% | - | 0 mm | - | - | - |
| 1777907401 | 13.89° C | 44% | - | 0 mm | - | - | - |
| 1777906802 | 13.89° C | 44% | - | 0 mm | - | - | - |
| 1777866602 | 14.44° C | 56% | - | 0 mm | - | - | - |
| 1777865402 | 15° C | 55% | - | 0 mm | - | - | - |
| 1777861802 | 15° C | 55% | - | 0 mm | - | - | - |
| 1777861202 | 15° C | 55% | - | 0 mm | - | - | - |
| 1777860002 | 15.56° C | 54% | - | 0 mm | - | - | - |
| 1777859402 | 15.56° C | 53% | - | 0 mm | - | - | - |
| 1777858202 | 16.11° C | 53% | - | 0 mm | - | - | - |
| 1777847402 | 17.78° C | 50% | - | 0.76 mm | - | - | - |
| 1777840801 | 17.22° C | 51% | - | 0.76 mm | - | - | - |
| 1777835401 | 17.22° C | 53% | - | 0.76 mm | - | - | - |
| 1777832402 | 15.56° C | 55% | - | 0.76 mm | - | - | - |
| 1777831802 | 15.56° C | 56% | - | 0.76 mm | - | - | - |
| 1777831202 | 15° C | 56% | - | 0.76 mm | - | - | - |
| 1777826402 | 15° C | 61% | - | 0.76 mm | - | - | - |
| 1777824002 | 12.78° C | 65% | - | 0.76 mm | - | - | - |
| 1777819202 | 10° C | 75% | - | 0.76 mm | - | - | - |
| 1777818002 | 10° C | 75% | - | 0.76 mm | - | - | - |
| 1777816802 | 9.44° C | 75% | - | 0.76 mm | - | - | - |
| 1777813202 | 8.89° C | 78% | - | 0.76 mm | - | - | - |
* Rain latest 24 hours (hover to see other rain measurements)
** Current wind speed in m/s (hover to see current wind gust speed)